Time;durP1;ratioP1;P1;durP2;ratioP2;P2;SDS_P1;SDS_P2;PMS_P1;PMS_P2;Temp;Humidity;BMP_temperature;BMP_pressure;BME280_temperature;BME280_humidity;BME280_pressure;Samples;Min_cycle;Max_cycle;Signal;HPM_P1;HPM_P2
2023/06/18 00:02:03;;;;;;;14.00;12.57;;;22.40;73.60;;;25.08;49.77;101379.75;5055003;28;20216;-58
2023/06/18 00:04:31;;;;;;;12.37;11.17;;;22.40;73.70;;;25.06;49.55;101376.50;5054560;28;20256;-59
2023/06/18 00:06:58;;;;;;;13.97;12.57;;;22.40;73.50;;;25.03;49.69;101374.31;5054181;28;20221;-59
2023/06/18 00:09:25;;;;;;;15.07;13.57;;;22.40;73.90;;;25.02;49.99;101372.69;5054914;28;20205;-60
2023/06/18 00:11:54;;;;;;;13.47;12.23;;;22.30;73.80;;;24.98;49.66;101366.19;5055043;28;20197;-57
2023/06/18 00:14:21;;;;;;;12.77;11.57;;;22.30;73.90;;;24.95;49.84;101366.69;5053822;28;20718;-58
2023/06/18 00:16:50;;;;;;;13.90;12.50;;;22.30;74.00;;;24.95;50.24;101365.88;5053980;28;20197;-59
2023/06/18 00:19:18;;;;;;;14.10;12.20;;;22.30;74.00;;;24.93;50.26;101362.63;5054837;28;20618;-58
2023/06/18 00:21:46;;;;;;;15.63;14.10;;;22.30;74.70;;;24.89;50.23;101363.13;5054368;28;20194;-54
2023/06/18 00:24:12;;;;;;;14.03;12.53;;;22.30;74.10;;;24.86;50.05;101362.84;5054194;28;20249;-57
2023/06/18 00:26:40;;;;;;;13.97;12.37;;;22.20;74.00;;;24.82;50.32;101359.00;5054480;28;20269;-58
2023/06/18 00:29:08;;;;;;;14.23;12.93;;;22.20;74.10;;;24.80;50.39;101363.84;5054471;28;20201;-58
2023/06/18 00:31:35;;;;;;;15.03;13.53;;;22.20;74.30;;;24.78;50.99;101360.59;5047432;28;20278;-59
2023/06/18 00:34:06;;;;;;;13.97;12.50;;;22.20;74.50;;;24.76;50.81;101357.31;5034253;28;20607;-57
2023/06/18 00:36:50;;;;;;;13.30;11.90;;;22.10;74.40;;;24.74;50.26;101354.88;5034418;28;20608;-56
2023/06/18 00:39:17;;;;;;;14.83;13.33;;;22.10;74.50;;;24.73;50.75;101353.25;5034983;28;20258;-57
2023/06/18 00:41:46;;;;;;;13.93;12.13;;;22.10;74.60;;;24.72;50.67;101356.19;5043072;28;20221;-58
2023/06/18 00:44:15;;;;;;;13.87;12.33;;;22.10;74.70;;;24.71;50.59;101350.00;5033981;28;20607;-59
2023/06/18 00:46:46;;;;;;;12.53;11.23;;;22.10;74.80;;;24.71;50.58;101349.16;5034521;28;20198;-59
2023/06/18 00:49:18;;;;;;;14.60;13.20;;;22.10;74.90;;;24.72;50.85;101351.59;5035227;28;20707;-57
2023/06/18 00:51:46;;;;;;;14.33;12.93;;;22.10;74.90;;;24.69;50.93;101351.31;5034483;28;20194;-57
2023/06/18 00:54:16;;;;;;;13.90;12.50;;;22.00;74.90;;;24.67;50.89;101354.25;5033486;28;20663;-60
2023/06/18 00:56:52;;;;;;;14.50;12.87;;;22.00;75.30;;;24.65;50.94;101350.19;5033883;28;20195;-60
2023/06/18 00:59:24;;;;;;;14.27;12.87;;;21.90;75.10;;;24.60;51.17;101348.25;5034221;28;20190;-59
2023/06/18 01:01:54;;;;;;;14.20;12.80;;;21.90;75.30;;;24.58;51.21;101349.56;5041650;28;20270;-60
2023/06/18 01:04:27;;;;;;;14.60;13.20;;;21.90;75.40;;;24.56;51.56;101357.06;5046047;28;20277;-59
2023/06/18 01:06:57;;;;;;;14.43;13.03;;;21.90;75.50;;;24.55;51.40;101350.06;5033593;28;20190;-59
2023/06/18 01:09:27;;;;;;;15.10;13.60;;;21.90;75.60;;;24.52;51.06;101350.56;5032649;28;20273;-59
2023/06/18 01:11:54;;;;;;;15.93;14.17;;;21.90;75.60;;;24.50;51.01;101352.69;5041444;28;20280;-57
2023/06/18 01:14:28;;;;;;;15.37;13.87;;;21.90;75.60;;;24.45;51.37;101347.25;5052906;28;20220;-59
2023/06/18 01:16:57;;;;;;;16.90;15.30;;;21.80;75.70;;;24.41;51.42;101343.44;5038159;28;20201;-60
2023/06/18 01:19:43;;;;;;;19.33;16.73;;;21.80;75.90;;;24.30;51.87;101347.06;5033469;28;20694;-60
2023/06/18 01:22:24;;;;;;;15.70;14.07;;;21.70;76.00;;;24.27;51.65;101342.19;5032702;28;20353;-58
2023/06/18 01:24:55;;;;;;;14.87;13.37;;;21.70;76.40;;;24.27;52.06;101342.19;5033270;28;20210;-58
2023/06/18 01:27:25;;;;;;;15.63;14.13;;;21.60;76.60;;;24.26;51.70;101345.94;5033009;28;20270;-59
2023/06/18 01:29:56;;;;;;;15.73;14.13;;;21.60;76.60;;;24.21;52.00;101344.81;5033732;28;20634;-56
2023/06/18 01:32:23;;;;;;;16.63;14.83;;;21.60;76.60;;;24.14;52.15;101341.50;5046177;28;20268;-59
2023/06/18 01:34:53;;;;;;;17.17;15.50;;;21.50;76.50;;;24.06;52.38;101341.91;5053100;28;20217;-59
2023/06/18 01:37:36;;;;;;;16.13;14.53;;;21.40;76.60;;;23.95;52.84;101345.50;5052643;28;20197;-58
2023/06/18 01:40:22;;;;;;;15.57;13.93;;;21.30;77.40;;;23.89;53.17;101346.47;5034924;28;20260;-59
2023/06/18 01:42:59;;;;;;;16.67;14.93;;;21.30;77.90;;;23.87;53.16;101348.59;5053314;28;20228;-59
2023/06/18 01:45:34;;;;;;;16.97;15.27;;;21.20;78.00;;;23.84;53.23;101348.28;5053557;28;20245;-59
2023/06/18 01:48:05;;;;;;;17.17;15.57;;;21.20;78.10;;;23.79;53.54;101357.09;5051697;28;20550;-60
2023/06/18 01:50:37;;;;;;;17.07;15.33;;;21.10;78.40;;;23.76;53.46;101356.78;5053748;28;20206;-57
2023/06/18 01:53:06;;;;;;;15.80;14.30;;;21.10;78.70;;;23.74;53.65;101359.72;5053541;28;20221;-54
2023/06/18 01:55:37;;;;;;;16.43;14.80;;;21.00;78.80;;;23.74;53.57;101361.59;5053339;28;20209;-58
2023/06/18 01:58:04;;;;;;;16.00;14.57;;;21.00;79.00;;;23.76;53.90;101368.34;5053432;28;20212;-57
2023/06/18 02:00:33;;;;;;;16.43;14.93;;;21.00;79.30;;;23.78;53.73;101374.28;5053080;28;20244;-54
2023/06/18 02:03:00;;;;;;;14.67;13.33;;;21.10;79.40;;;23.79;53.63;101375.94;5050774;28;20214;-57
2023/06/18 02:05:27;;;;;;;16.97;15.33;;;21.10;79.40;;;23.79;53.78;101375.94;5038954;28;20693;-58
2023/06/18 02:07:54;;;;;;;16.00;14.30;;;21.10;79.30;;;23.80;53.80;101369.47;5052676;28;20217;-55
2023/06/18 02:10:21;;;;;;;17.63;15.83;;;21.10;79.10;;;23.79;53.41;101373.25;5052965;28;20257;-60
2023/06/18 02:12:49;;;;;;;16.80;15.20;;;21.10;78.60;;;23.76;53.35;101368.34;5052515;28;20259;-56
2023/06/18 02:15:16;;;;;;;16.63;14.93;;;21.10;78.60;;;23.72;53.35;101366.41;5052742;28;20245;-53
2023/06/18 02:17:45;;;;;;;18.20;16.40;;;21.00;78.50;;;23.65;53.72;101366.56;5068272;28;20296;-58
2023/06/18 02:20:12;;;;;;;18.33;16.33;;;21.00;78.60;;;23.58;53.62;101368.63;5047138;28;20255;-60
2023/06/18 02:22:39;;;;;;;17.70;16.00;;;20.90;78.90;;;23.52;53.95;101369.56;5052546;28;20194;-56
2023/06/18 02:25:08;;;;;;;18.47;16.57;;;20.80;79.10;;;23.46;53.98;101370.56;5052269;28;20681;-58
2023/06/18 02:27:35;;;;;;;18.20;16.40;;;20.80;79.30;;;23.39;54.17;101361.84;5039606;28;20190;-55
2023/06/18 02:30:03;;;;;;;19.80;16.43;;;20.70;79.60;;;23.34;54.35;101364.41;5032609;28;20273;-56
2023/06/18 02:32:36;;;;;;;17.67;15.87;;;20.60;79.90;;;23.28;54.77;101360.81;5033188;28;20206;-55
2023/06/18 02:35:05;;;;;;;17.57;15.87;;;20.50;80.20;;;23.27;54.99;101361.06;5032925;28;20691;-56
2023/06/18 02:37:32;;;;;;;16.07;14.37;;;20.50;80.80;;;23.27;55.09;101359.16;5053951;28;20676;-58
2023/06/18 02:39:59;;;;;;;17.70;16.00;;;20.50;80.90;;;23.30;54.87;101363.25;5056433;28;20200;-57
2023/06/18 02:42:26;;;;;;;16.80;15.07;;;20.60;80.90;;;23.30;54.91;101366.75;5056510;28;20678;-57
2023/06/18 02:44:53;;;;;;;17.27;15.57;;;20.60;80.90;;;23.34;54.84;101364.41;5056532;28;20288;-57
2023/06/18 02:47:20;;;;;;;17.27;15.47;;;20.60;80.90;;;23.36;54.63;101359.63;5056581;28;20663;-58
2023/06/18 02:49:47;;;;;;;17.17;15.50;;;20.60;80.60;;;23.38;54.82;101360.19;5046265;28;20201;-59
2023/06/18 02:52:16;;;;;;;17.93;16.13;;;20.70;80.50;;;23.38;54.69;101360.19;5036537;28;20197;-54
2023/06/18 02:54:43;;;;;;;15.77;14.37;;;20.70;80.50;;;23.39;54.57;101357.25;5036286;28;20571;-58
2023/06/18 02:57:11;;;;;;;16.77;15.03;;;20.70;80.60;;;23.43;54.68;101353.06;5041453;28;20209;-56
2023/06/18 02:59:38;;;;;;;16.37;14.60;;;20.70;80.70;;;23.47;54.82;101353.34;5056652;28;20670;-59
2023/06/18 03:02:05;;;;;;;15.60;14.20;;;20.80;80.80;;;23.52;54.54;101353.44;5056188;28;20296;-62
2023/06/18 03:04:32;;;;;;;18.93;15.93;;;20.70;80.50;;;23.58;54.31;101355.16;5055067;28;20293;-59
2023/06/18 03:06:59;;;;;;;16.53;14.93;;;20.80;80.20;;;23.58;53.99;101357.84;5055980;28;20224;-57
2023/06/18 03:09:28;;;;;;;17.80;16.13;;;20.90;79.70;;;23.54;53.81;101354.84;5056000;28;20314;-58
2023/06/18 03:11:54;;;;;;;16.37;14.73;;;20.90;79.30;;;23.48;53.80;101352.31;5056218;28;20276;-58
2023/06/18 03:14:22;;;;;;;17.33;15.63;;;20.80;79.10;;;23.42;53.95;101358.66;5050648;28;20740;-55
2023/06/18 03:16:49;;;;;;;17.63;15.63;;;20.70;79.40;;;23.40;53.90;101363.47;5044351;28;20189;-56
2023/06/18 03:19:16;;;;;;;15.80;14.20;;;20.70;79.80;;;23.36;54.36;101354.25;5056076;28;20232;-56
2023/06/18 03:21:43;;;;;;;17.00;15.40;;;20.70;80.10;;;23.38;54.47;101360.19;5055737;28;20232;-57
2023/06/18 03:24:11;;;;;;;17.80;16.03;;;20.70;80.20;;;23.40;54.32;101358.91;5039407;28;20202;-57
2023/06/18 03:26:40;;;;;;;16.77;15.17;;;20.70;80.10;;;23.38;54.30;101360.19;5035941;28;20199;-58
2023/06/18 03:29:07;;;;;;;16.83;15.23;;;20.70;80.00;;;23.39;54.33;101364.53;5037043;28;20193;-56
2023/06/18 03:31:35;;;;;;;16.37;14.87;;;20.70;80.00;;;23.38;54.22;101361.03;5052910;28;20262;-59
2023/06/18 03:34:02;;;;;;;16.50;14.90;;;20.70;80.00;;;23.41;54.25;101363.22;5055768;28;20221;-58
2023/06/18 03:36:30;;;;;;;16.93;15.27;;;20.70;79.70;;;23.44;54.00;101359.22;5055421;28;20292;-59
2023/06/18 03:38:57;;;;;;;16.60;15.10;;;20.70;79.50;;;23.45;53.93;101366.22;5055929;28;20206;-58
2023/06/18 03:41:23;;;;;;;16.47;14.90;;;20.70;79.60;;;23.45;53.94;101363.53;5055566;28;20198;-58
2023/06/18 03:43:52;;;;;;;16.00;14.47;;;20.70;79.60;;;23.45;53.65;101368.91;5048481;28;20201;-59
2023/06/18 03:46:19;;;;;;;16.20;14.70;;;20.70;79.50;;;23.47;53.72;101366.78;5035466;28;20222;-56
2023/06/18 03:48:46;;;;;;;15.83;14.23;;;20.70;79.40;;;23.48;53.78;101365.75;5034080;28;20191;-55
2023/06/18 03:51:13;;;;;;;16.10;14.60;;;20.70;79.40;;;23.48;53.62;101371.13;5035423;28;20274;-58
2023/06/18 03:53:40;;;;;;;17.37;15.67;;;20.80;79.40;;;23.49;53.44;101372.75;5042165;28;20313;-59
2023/06/18 03:56:08;;;;;;;14.63;13.27;;;20.70;79.00;;;23.50;53.48;101371.69;5055396;28;20293;-58
2023/06/18 03:58:35;;;;;;;15.87;14.47;;;20.70;78.90;;;23.52;53.08;101366.88;5054814;28;20259;-58
2023/06/18 04:01:03;;;;;;;14.17;12.77;;;20.70;78.60;;;23.49;53.07;101362.00;5055666;28;20225;-56
2023/06/18 04:03:30;;;;;;;14.27;12.87;;;20.70;78.50;;;23.45;53.04;101361.69;5055245;28;20201;-59
2023/06/18 04:05:57;;;;;;;13.93;12.67;;;20.70;78.60;;;23.44;53.20;101364.59;5055228;28;20249;-57
2023/06/18 04:08:24;;;;;;;14.50;12.80;;;20.70;78.50;;;23.43;53.19;101357.59;5055142;28;20216;-59
2023/06/18 04:10:51;;;;;;;14.30;13.00;;;20.70;78.60;;;23.42;53.27;101361.34;5055038;28;20531;-54
2023/06/18 04:13:18;;;;;;;14.30;12.90;;;20.70;78.30;;;23.41;52.83;101359.72;5055064;28;20204;-55
2023/06/18 04:15:45;;;;;;;14.47;12.97;;;20.70;77.80;;;23.36;52.77;101356.94;5038521;28;20433;-56
2023/06/18 04:18:14;;;;;;;14.20;12.90;;;20.70;78.00;;;23.32;53.29;101361.16;5034788;28;20329;-54
2023/06/18 04:20:41;;;;;;;13.70;12.50;;;20.60;78.30;;;23.31;53.12;101359.50;5036469;28;20202;-54
2023/06/18 04:23:08;;;;;;;12.37;11.37;;;20.60;78.30;;;23.32;52.68;101361.16;5036202;28;20277;-54
2023/06/18 04:25:35;;;;;;;13.27;12.07;;;20.60;78.30;;;23.32;52.91;101361.16;5049360;28;20337;-53
2023/06/18 04:28:02;;;;;;;12.80;11.70;;;20.60;78.30;;;23.33;53.06;101357.41;5056740;28;20272;-54
2023/06/18 04:30:29;;;;;;;12.67;11.57;;;20.60;78.50;;;23.35;53.05;101363.38;5056912;28;20216;-53
2023/06/18 04:32:56;;;;;;;12.77;11.57;;;20.60;78.20;;;23.36;52.90;101362.31;5058533;28;20201;-54
2023/06/18 04:35:24;;;;;;;13.37;12.13;;;20.60;78.20;;;23.38;52.79;101365.56;5058994;28;20206;-54
2023/06/18 04:37:52;;;;;;;13.63;12.43;;;20.60;78.10;;;23.40;52.73;101358.09;5058216;28;20258;-54
2023/06/18 04:40:19;;;;;;;12.80;11.63;;;20.60;77.90;;;23.41;52.55;101352.47;5058793;28;20689;-54
2023/06/18 04:42:46;;;;;;;12.40;11.20;;;20.70;77.90;;;23.41;52.40;101351.66;5058101;28;20224;-59
2023/06/18 04:45:13;;;;;;;13.33;12.10;;;20.70;77.80;;;23.44;52.54;101356.53;5057247;28;20213;-58
2023/06/18 04:47:40;;;;;;;12.43;11.33;;;20.70;77.70;;;23.46;52.57;101341.00;5057962;28;20193;-54
2023/06/18 04:50:08;;;;;;;13.80;12.50;;;20.70;77.60;;;23.48;52.52;101352.31;5057543;28;20200;-59
2023/06/18 04:52:37;;;;;;;12.97;11.77;;;20.70;77.60;;;23.49;52.22;101346.69;5042753;28;20201;-58
2023/06/18 04:55:05;;;;;;;13.13;11.93;;;20.70;77.50;;;23.52;52.27;101356.13;5034607;28;20213;-58
2023/06/18 04:57:32;;;;;;;12.37;11.27;;;20.70;77.60;;;23.54;52.17;101354.84;5034381;28;20201;-58
2023/06/18 05:00:00;;;;;;;12.63;11.43;;;20.70;77.40;;;23.58;52.10;101349.78;5034031;28;20210;-56
2023/06/18 05:02:28;;;;;;;12.83;11.63;;;20.80;77.40;;;23.58;51.91;101349.78;5049367;28;20281;-59
2023/06/18 05:04:55;;;;;;;15.53;12.50;;;20.80;77.10;;;23.61;51.75;101346.59;5053110;28;20217;-58
2023/06/18 05:07:22;;;;;;;13.47;12.17;;;20.80;77.20;;;23.63;51.91;101352.53;5053660;28;20224;-54
2023/06/18 05:09:50;;;;;;;12.30;11.20;;;20.80;77.20;;;23.69;51.96;101351.56;5054245;28;20659;-57
2023/06/18 05:12:17;;;;;;;13.30;12.10;;;20.90;77.20;;;23.74;51.47;101346.28;5054220;28;20598;-56
2023/06/18 05:14:44;;;;;;;12.90;11.50;;;20.90;76.60;;;23.79;51.42;101357.09;5053225;28;20217;-59
2023/06/18 05:17:11;;;;;;;12.43;11.30;;;21.00;76.80;;;23.86;51.47;101356.94;5033577;28;20194;-57
2023/06/18 05:19:38;;;;;;;11.80;10.57;;;21.00;76.70;;;23.91;51.32;101352.44;5043449;28;20201;-59
2023/06/18 05:22:05;;;;;;;14.17;12.87;;;21.10;76.50;;;23.96;51.48;101352.50;5053666;28;20297;-58
2023/06/18 05:24:32;;;;;;;12.47;11.27;;;21.10;76.10;;;24.02;50.83;101351.53;5053524;28;20300;-58
2023/06/18 05:27:01;;;;;;;12.67;11.37;;;21.20;76.10;;;24.10;50.76;101347.63;5053652;28;20186;-54
2023/06/18 05:29:27;;;;;;;11.50;10.40;;;21.20;76.00;;;24.15;50.63;101356.56;5053642;28;20196;-58
2023/06/18 05:31:54;;;;;;;10.97;9.90;;;21.30;76.00;;;24.21;50.69;101350.19;5053840;28;20221;-55
2023/06/18 05:34:21;;;;;;;11.00;10.00;;;21.30;75.80;;;24.26;50.11;101357.53;5033867;28;20194;-59
2023/06/18 05:36:48;;;;;;;12.57;11.43;;;21.40;75.60;;;24.33;49.74;101362.72;5033518;28;20285;-58
2023/06/18 05:39:16;;;;;;;11.33;10.20;;;21.40;74.90;;;24.37;49.57;101369.22;5033600;28;20230;-58
2023/06/18 05:41:43;;;;;;;11.70;10.50;;;21.50;74.30;;;24.39;49.73;101370.59;5048605;28;20619;-57
2023/06/18 05:44:12;;;;;;;10.83;9.83;;;21.50;74.20;;;24.46;49.24;101373.13;5053024;28;20193;-60
2023/06/18 05:46:39;;;;;;;13.63;12.23;;;21.60;74.30;;;24.53;49.27;101365.66;5045615;28;20238;-59
2023/06/18 05:49:06;;;;;;;10.63;9.63;;;21.60;73.90;;;24.61;48.98;101370.59;5033759;28;20183;-57
2023/06/18 05:51:32;;;;;;;11.07;10.00;;;21.70;73.90;;;24.71;48.74;101376.09;5033666;28;20281;-57
2023/06/18 05:53:59;;;;;;;13.00;11.70;;;21.80;73.90;;;24.79;49.07;101384.56;5033084;28;20197;-58
2023/06/18 05:56:26;;;;;;;10.43;9.53;;;21.90;73.50;;;24.84;48.80;101373.84;5033483;28;20214;-59
2023/06/18 05:58:54;;;;;;;9.97;9.10;;;22.00;73.30;;;24.91;48.56;101370.97;5033368;28;20221;-57
2023/06/18 06:01:22;;;;;;;9.43;8.53;;;22.00;73.20;;;25.01;48.19;101381.06;5044984;28;20754;-59
2023/06/18 06:03:49;;;;;;;12.93;11.73;;;22.10;73.20;;;25.09;47.79;101380.56;5043490;28;20189;-59
2023/06/18 06:06:17;;;;;;;11.43;10.43;;;22.20;72.40;;;25.13;47.89;101389.78;5053307;28;20225;-58
2023/06/18 06:08:44;;;;;;;9.93;9.10;;;22.20;72.00;;;25.16;47.92;101384.69;5053045;28;20257;-58
2023/06/18 06:11:11;;;;;;;9.27;8.37;;;22.30;72.10;;;25.25;47.28;101377.78;5051464;28;20201;-58
2023/06/18 06:13:38;;;;;;;10.67;9.53;;;22.30;71.90;;;25.33;47.76;101380.00;5041268;28;20185;-58
2023/06/18 06:16:05;;;;;;;9.13;8.33;;;22.40;71.60;;;25.42;46.96;101383.03;5056697;28;20251;-56
2023/06/18 06:18:33;;;;;;;9.97;9.07;;;22.50;71.40;;;25.51;46.96;101381.53;5057072;28;20244;-58
2023/06/18 06:21:00;;;;;;;10.10;9.20;;;22.60;71.40;;;25.58;46.02;101381.34;5057503;28;20577;-56
2023/06/18 06:23:27;;;;;;;9.63;8.83;;;22.60;70.00;;;25.65;46.42;101384.63;5057030;28;20284;-58
2023/06/18 06:25:54;;;;;;;9.90;8.37;;;22.70;69.50;;;25.70;45.52;101384.66;5057474;28;20298;-57
2023/06/18 06:28:21;;;;;;;9.00;8.23;;;22.80;69.10;;;25.77;45.69;101379.84;5057078;28;20666;-57
2023/06/18 06:30:48;;;;;;;9.30;8.50;;;22.90;68.80;;;25.84;44.92;101380.44;5057188;28;20196;-58
2023/06/18 06:33:15;;;;;;;8.33;7.63;;;23.00;67.50;;;25.89;45.08;101383.16;5056164;28;20658;-58
2023/06/18 06:35:44;;;;;;;9.00;8.23;;;23.00;67.40;;;25.96;43.71;101383.75;5056939;28;20214;-54
2023/06/18 06:38:12;;;;;;;7.93;7.33;;;23.10;66.50;;;26.03;43.94;101385.13;5056867;28;20284;-59
2023/06/18 06:40:39;;;;;;;7.00;6.50;;;23.20;66.10;;;26.07;43.14;101386.25;5056259;28;20224;-60
2023/06/18 06:43:06;;;;;;;8.07;7.27;;;23.20;64.00;;;26.12;42.16;101382.81;5056312;28;20214;-55
2023/06/18 06:45:33;;;;;;;7.93;7.23;;;23.30;63.40;;;26.17;42.55;101380.13;5057266;28;20214;-59
2023/06/18 06:48:00;;;;;;;8.17;7.47;;;23.40;63.10;;;26.23;41.96;101376.38;5056541;28;20189;-56
2023/06/18 06:50:27;;;;;;;7.07;6.50;;;23.50;63.20;;;26.33;41.65;101384.53;5056998;28;20247;-59
2023/06/18 06:52:55;;;;;;;7.80;7.10;;;23.50;62.80;;;26.40;41.21;101385.09;5056207;28;20205;-57
2023/06/18 06:55:22;;;;;;;7.33;6.63;;;23.60;61.80;;;26.47;41.15;101382.16;5054716;28;20221;-59
2023/06/18 06:57:49;;;;;;;7.57;6.70;;;23.70;61.40;;;26.53;41.11;101383.81;5057421;28;20274;-60
2023/06/18 07:00:17;;;;;;;7.03;6.13;;;23.70;61.70;;;26.63;41.65;101384.66;5057088;28;20281;-59
2023/06/18 07:02:45;;;;;;;6.60;6.00;;;23.90;62.30;;;26.76;40.98;101384.22;5056823;28;20281;-57
2023/06/18 07:05:12;;;;;;;6.77;6.17;;;23.90;61.40;;;26.88;41.04;101391.25;5056314;28;20216;-58
2023/06/18 07:07:40;;;;;;;6.80;6.30;;;24.00;61.60;;;26.95;39.98;101397.22;5053739;28;20205;-59
2023/06/18 07:10:09;;;;;;;6.67;6.17;;;24.10;60.00;;;26.99;39.65;101392.88;5056244;28;20273;-58
2023/06/18 07:12:36;;;;;;;5.80;5.20;;;24.20;59.20;;;27.04;40.08;101388.31;5056163;28;20201;-59
2023/06/18 07:15:05;;;;;;;6.87;6.17;;;24.30;59.40;;;27.12;39.71;101392.38;5055227;28;20209;-59
2023/06/18 07:17:32;;;;;;;9.50;6.20;;;24.30;59.30;;;27.19;39.70;101382.94;5055934;28;20201;-60
2023/06/18 07:19:59;;;;;;;6.33;5.83;;;24.40;59.10;;;27.19;39.52;101395.66;5055888;28;20239;-59
2023/06/18 07:22:28;;;;;;;10.93;6.27;;;24.50;58.30;;;27.28;39.61;101391.31;5044126;28;20194;-60
2023/06/18 07:24:56;;;;;;;6.37;5.87;;;24.60;58.60;;;27.29;39.11;101387.56;5034517;28;20222;-60
2023/06/18 07:27:25;;;;;;;6.67;5.97;;;24.60;58.10;;;27.38;39.03;101391.38;5036280;28;20679;-59
2023/06/18 07:29:53;;;;;;;5.73;5.33;;;24.70;57.80;;;27.44;38.80;101398.38;5035615;28;20197;-58
2023/06/18 07:32:20;;;;;;;6.60;5.97;;;24.80;58.20;;;27.49;39.56;101393.81;5035364;28;20703;-58
2023/06/18 07:34:47;;;;;;;6.20;5.70;;;24.80;58.10;;;27.63;39.20;101399.47;5035229;28;20269;-56
2023/06/18 07:37:14;;;;;;;6.10;5.60;;;24.90;58.50;;;27.75;38.74;101397.31;5035552;28;20686;-58
2023/06/18 07:39:41;;;;;;;6.80;6.20;;;25.00;58.10;;;27.81;38.26;101382.69;5050839;28;20248;-58
2023/06/18 07:42:08;;;;;;;6.93;6.20;;;25.10;57.20;;;27.83;38.32;101385.94;5055358;28;20209;-58
2023/06/18 07:44:36;;;;;;;6.70;6.10;;;25.20;57.20;;;27.90;38.03;101386.47;5055366;28;20708;-58
2023/06/18 07:47:04;;;;;;;6.20;5.70;;;25.20;56.60;;;27.90;38.27;101389.16;5055915;28;20186;-59
2023/06/18 07:49:31;;;;;;;6.97;6.37;;;25.20;56.60;;;27.94;37.62;101390.25;5055095;28;20639;-59
2023/06/18 07:51:59;;;;;;;5.90;5.47;;;25.30;56.00;;;27.93;37.97;101394.03;5055551;28;20290;-58
2023/06/18 07:54:26;;;;;;;7.07;6.40;;;25.40;56.20;;;27.99;37.39;101395.69;5054930;28;20194;-58
2023/06/18 07:56:53;;;;;;;6.53;5.97;;;25.40;55.40;;;27.98;37.76;101391.31;5055292;28;20647;-59
2023/06/18 07:59:21;;;;;;;6.33;5.83;;;25.40;55.70;;;28.04;37.81;101390.25;5054893;28;20213;-58
2023/06/18 08:01:50;;;;;;;5.70;5.20;;;25.50;55.90;;;28.15;37.69;101391.84;5055316;28;20663;-57
2023/06/18 08:04:17;;;;;;;6.70;6.10;;;25.60;56.00;;;28.24;37.47;101388.56;5053619;28;20204;-60
2023/06/18 08:06:48;;;;;;;6.43;5.93;;;25.60;55.60;;;28.30;37.01;101382.03;5054936;28;20622;-56
2023/06/18 08:09:15;;;;;;;6.37;5.63;;;25.70;55.00;;;28.40;37.20;101382.00;5055045;28;20190;-57
2023/06/18 08:11:42;;;;;;;6.93;6.33;;;25.70;55.00;;;28.47;36.59;101377.09;5054948;28;20202;-59
2023/06/18 08:14:10;;;;;;;6.60;6.10;;;25.80;54.40;;;28.57;36.74;101377.88;5051138;28;20281;-57
2023/06/18 08:16:38;;;;;;;7.37;6.50;;;25.90;54.60;;;28.67;36.41;101375.13;5034935;28;20202;-59
2023/06/18 08:19:07;;;;;;;6.33;5.83;;;26.00;54.30;;;29.12;35.91;101374.03;5035306;28;20667;-55
2023/06/18 08:21:34;;;;;;;5.93;5.53;;;26.10;54.80;;;30.14;34.74;101374.81;5034835;28;20194;-60
2023/06/18 08:24:02;;;;;;;6.00;5.40;;;26.30;54.60;;;31.48;33.13;101372.41;5034658;28;20198;-55
2023/06/18 08:26:29;;;;;;;6.17;5.57;;;26.80;54.90;;;32.71;31.04;101370.59;5034648;28;20225;-55
2023/06/18 08:28:56;;;;;;;6.00;5.50;;;27.40;52.90;;;33.81;29.24;101379.94;5035062;28;20195;-57
2023/06/18 08:31:24;;;;;;;6.10;5.60;;;28.10;50.90;;;34.84;27.90;101369.34;5034622;28;20189;-57
2023/06/18 08:33:51;;;;;;;6.40;5.90;;;28.80;48.60;;;35.66;26.25;101372.66;5034715;28;20203;-55
2023/06/18 08:36:21;;;;;;;6.67;5.40;;;29.60;46.80;;;36.39;25.52;101374.13;5052062;28;20705;-58
2023/06/18 08:38:48;;;;;;;5.60;5.10;;;30.30;44.20;;;37.14;25.21;101362.13;5054369;28;20197;-57
2023/06/18 08:41:15;;;;;;;6.25;5.70;;;30.90;43.50;;;38.05;23.95;101366.47;5054099;28;20213;-57
2023/06/18 08:43:43;;;;;;;6.28;5.68;;;31.50;42.40;;;38.96;22.90;101373.22;5054154;28;20292;-57
2023/06/18 08:46:11;;;;;;;6.18;5.68;;;32.20;40.40;;;39.46;20.79;101362.44;5054244;28;20229;-56
2023/06/18 08:48:43;;;;;;;6.18;5.70;;;32.80;36.00;;;39.75;20.38;101361.22;5054005;28;20190;-58
2023/06/18 08:51:11;;;;;;;6.10;4.65;;;33.30;34.10;;;40.36;20.14;101358.78;5053416;28;20204;-58
2023/06/18 08:53:49;;;;;;;5.32;4.78;;;33.80;34.70;;;41.42;20.08;101355.44;5042512;28;20674;-58
2023/06/18 08:56:22;;;;;;;5.95;5.18;;;34.20;34.30;;;42.41;18.92;101360.66;5033797;28;20236;-57
2023/06/18 08:58:51;;;;;;;5.55;5.15;;;34.80;34.00;;;42.85;17.35;101366.38;5034027;28;20550;-58
2023/06/18 09:01:19;;;;;;;5.13;4.82;;;35.30;30.70;;;42.96;17.01;101356.25;5040679;28;20647;-56
2023/06/18 09:03:47;;;;;;;5.68;5.18;;;35.80;29.80;;;43.32;17.46;101366.56;5053740;28;20558;-58
2023/06/18 09:06:14;;;;;;;5.15;4.70;;;36.10;29.80;;;43.87;17.18;101356.34;5050511;28;20237;-58
2023/06/18 09:08:43;;;;;;;5.13;4.72;;;36.50;29.30;;;44.13;16.95;101347.03;5033571;28;20191;-57
2023/06/18 09:11:10;;;;;;;5.63;5.13;;;36.80;29.10;;;44.39;15.11;101346.78;5035196;28;20273;-58
2023/06/18 09:13:42;;;;;;;5.50;5.00;;;37.10;27.30;;;44.54;15.19;101342.91;5053747;28;20204;-59
2023/06/18 09:16:10;;;;;;;6.05;5.60;;;37.40;26.80;;;44.21;15.43;101343.13;5053633;28;20209;-57
2023/06/18 09:18:37;;;;;;;4.93;4.63;;;37.40;25.90;;;44.07;15.82;101343.03;5054087;28;20224;-59
2023/06/18 09:21:04;;;;;;;5.80;5.35;;;37.60;26.20;;;44.35;15.52;101343.19;5053603;28;20292;-58
2023/06/18 09:23:32;;;;;;;5.30;4.90;;;37.80;26.30;;;44.84;15.64;101342.63;5042692;28;20603;-55
2023/06/18 09:26:01;;;;;;;5.15;4.65;;;37.90;26.30;;;45.41;15.15;101338.03;5033580;28;20221;-57
2023/06/18 09:28:29;;;;;;;4.93;4.53;;;38.10;26.40;;;45.78;14.31;101341.22;5033404;28;20190;-58
2023/06/18 09:30:59;;;;;;;4.68;4.28;;;38.30;25.80;;;45.91;14.37;101344.38;5038848;28;20196;-58
2023/06/18 09:33:29;;;;;;;5.78;5.28;;;38.70;25.20;;;46.25;14.48;101342.72;5053238;28;20233;-57
2023/06/18 09:36:05;;;;;;;6.13;5.70;;;38.80;25.40;;;46.40;14.01;101346.28;5052056;28;20210;-62
2023/06/18 09:38:34;;;;;;;4.82;4.53;;;39.10;25.00;;;46.63;13.95;101341.00;5053003;28;20174;-59
2023/06/18 09:41:13;;;;;;;5.50;5.10;;;39.30;24.90;;;46.96;13.18;101348.81;5053220;28;20229;-56
2023/06/18 09:43:43;;;;;;;5.50;5.10;;;39.50;24.50;;;46.93;13.13;101344.06;5052909;28;20247;-59
2023/06/18 09:46:11;;;;;;;5.63;5.22;;;39.50;23.60;;;46.22;13.78;101344.31;5053173;28;20213;-56
2023/06/18 09:48:41;;;;;;;5.82;5.40;;;39.40;23.50;;;45.81;13.40;101334.84;5051188;28;20247;-57
2023/06/18 09:51:09;;;;;;;4.65;4.35;;;39.30;22.60;;;45.39;13.81;101334.81;5033360;28;20194;-60
2023/06/18 09:53:36;;;;;;;4.40;4.03;;;39.20;22.90;;;45.55;14.19;101326.88;5033015;28;20198;-59
2023/06/18 09:56:10;;;;;;;4.57;4.28;;;39.10;23.40;;;46.07;13.53;101340.00;5045164;28;20300;-59
2023/06/18 09:58:43;;;;;;;4.63;4.28;;;39.10;23.50;;;46.41;12.71;101339.53;5053187;28;20178;-59
2023/06/18 10:01:11;;;;;;;5.07;4.68;;;39.20;23.00;;;46.36;12.30;101337.16;5052975;28;20205;-58
2023/06/18 10:03:39;;;;;;;5.25;4.85;;;39.30;22.30;;;46.23;12.55;101329.19;5052362;28;20203;-57
2023/06/18 10:06:16;;;;;;;6.38;5.25;;;39.30;21.90;;;45.77;13.02;101333.22;5053001;28;20301;-57
2023/06/18 10:08:46;;;;;;;4.72;4.43;;;39.30;22.20;;;45.71;13.56;101318.94;5052798;28;20205;-57
2023/06/18 10:11:17;;;;;;;4.95;4.55;;;39.20;22.70;;;45.91;13.00;101320.09;5051061;28;20239;-57